Time;durP1;ratioP1;P1;durP2;ratioP2;P2;SDS_P1;SDS_P2;PMS_P1;PMS_P2;Temp;Humidity;BMP_temperature;BMP_pressure;BME280_temperature;BME280_humidity;BME280_pressure;Samples;Min_cycle;Max_cycle;Signal;HPM_P1;HPM_P2
2021/06/18 00:01:23;;;;;;;6.00;2.10;;;;;;;;;;5034107;28;20049;-77
2021/06/18 00:03:50;;;;;;;3.55;2.40;;;;;;;;;;5034483;28;20503;-77
2021/06/18 00:06:16;;;;;;;4.47;2.50;;;;;;;;;;5034154;28;20029;-76
2021/06/18 00:08:42;;;;;;;3.17;2.15;;;;;;;;;;5034658;28;20075;-76
2021/06/18 00:11:08;;;;;;;3.50;2.05;;;;;;;;;;5034570;28;20026;-76
2021/06/18 00:13:35;;;;;;;6.38;2.50;;;;;;;;;;5033718;28;20022;-76
2021/06/18 00:16:01;;;;;;;7.28;2.25;;;;;;;;;;5033852;28;20044;-76
2021/06/18 00:18:27;;;;;;;5.43;2.85;;;;;;;;;;5033370;28;20112;-76
2021/06/18 00:20:53;;;;;;;2.97;2.30;;;;;;;;;;5033097;28;20064;-76
2021/06/18 00:23:20;;;;;;;4.28;2.60;;;;;;;;;;5034118;28;20069;-75
2021/06/18 00:25:46;;;;;;;4.10;2.50;;;;;;;;;;5032472;28;20412;-76
2021/06/18 00:28:13;;;;;;;4.72;2.42;;;;;;;;;;5033537;28;20044;-77
2021/06/18 00:30:40;;;;;;;2.38;2.15;;;;;;;;;;5033685;28;20100;-77
2021/06/18 00:33:06;;;;;;;8.05;2.90;;;;;;;;;;5033188;28;20024;-77
2021/06/18 00:35:33;;;;;;;5.30;2.30;;;;;;;;;;5033272;28;20026;-77
2021/06/18 00:37:59;;;;;;;4.18;2.17;;;;;;;;;;5033651;28;20035;-75
2021/06/18 00:40:25;;;;;;;7.68;2.13;;;;;;;;;;5033266;28;20033;-76
2021/06/18 00:42:51;;;;;;;4.57;2.42;;;;;;;;;;5033388;28;20076;-76
2021/06/18 00:45:17;;;;;;;3.40;2.22;;;;;;;;;;5032957;28;20030;-76
2021/06/18 00:47:48;;;;;;;2.70;2.15;;;;;;;;;;5032856;28;20072;-77
2021/06/18 00:50:14;;;;;;;4.38;2.33;;;;;;;;;;5033364;28;20018;-76
2021/06/18 00:52:40;;;;;;;3.15;2.25;;;;;;;;;;5033066;28;20029;-76
2021/06/18 00:55:06;;;;;;;4.05;2.20;;;;;;;;;;5033356;28;20078;-74
2021/06/18 00:57:32;;;;;;;4.68;2.33;;;;;;;;;;5033141;28;20029;-76
2021/06/18 00:59:58;;;;;;;4.53;2.20;;;;;;;;;;5032834;28;20040;-76
2021/06/18 01:02:24;;;;;;;3.25;2.15;;;;;;;;;;5032154;28;20030;-76
2021/06/18 01:04:50;;;;;;;3.13;2.28;;;;;;;;;;5032435;28;20113;-76
2021/06/18 01:07:18;;;;;;;2.10;1.85;;;;;;;;;;5032805;28;20495;-76
2021/06/18 01:09:56;;;;;;;4.57;2.00;;;;;;;;;;5032876;28;20380;-76
2021/06/18 01:12:24;;;;;;;3.00;2.30;;;;;;;;;;5032868;28;20024;-76
2021/06/18 01:15:25;;;;;;;5.03;2.40;;;;;;;;;;5031820;28;20030;-77
2021/06/18 01:18:00;;;;;;;3.28;2.17;;;;;;;;;;4990985;28;20030;-76
2021/06/18 01:20:29;;;;;;;5.20;2.58;;;;;;;;;;5020815;28;20055;-76
2021/06/18 01:22:56;;;;;;;3.20;2.22;;;;;;;;;;5032997;28;20475;-76
2021/06/18 01:25:26;;;;;;;3.22;2.05;;;;;;;;;;5032203;28;20407;-77
2021/06/18 01:27:53;;;;;;;2.80;2.15;;;;;;;;;;5032148;28;20084;-76
2021/06/18 01:30:20;;;;;;;5.88;2.40;;;;;;;;;;5032400;28;20105;-76
2021/06/18 01:33:03;;;;;;;4.07;2.15;;;;;;;;;;5032271;28;20140;-76
2021/06/18 01:35:40;;;;;;;4.50;2.15;;;;;;;;;;5031710;28;20111;-76
2021/06/18 01:38:10;;;;;;;8.07;2.35;;;;;;;;;;5032176;28;20076;-76
2021/06/18 01:40:37;;;;;;;4.80;2.22;;;;;;;;;;5032527;28;20022;-75
2021/06/18 01:43:04;;;;;;;3.33;2.00;;;;;;;;;;5032298;28;20036;-77
2021/06/18 01:45:31;;;;;;;6.30;2.40;;;;;;;;;;5032068;28;20034;-76
2021/06/18 01:47:58;;;;;;;4.30;2.40;;;;;;;;;;5032318;28;20036;-76
2021/06/18 01:50:26;;;;;;;4.75;2.47;;;;;;;;;;5032505;28;20079;-76
2021/06/18 01:52:54;;;;;;;4.30;1.90;;;;;;;;;;5032087;28;20053;-76
2021/06/18 01:55:23;;;;;;;4.18;2.22;;;;;;;;;;5032120;28;20030;-76
2021/06/18 01:57:50;;;;;;;3.95;2.20;;;;;;;;;;5031856;28;20018;-76
2021/06/18 02:00:16;;;;;;;3.75;2.28;;;;;;;;;;5032108;28;20033;-77
2021/06/18 02:02:44;;;;;;;5.20;2.10;;;;;;;;;;5032013;28;20503;-76
2021/06/18 02:05:10;;;;;;;4.38;2.30;;;;;;;;;;5031972;28;20520;-76
2021/06/18 02:07:37;;;;;;;4.70;2.10;;;;;;;;;;5031785;28;20480;-76
2021/06/18 02:10:07;;;;;;;5.82;2.30;;;;;;;;;;5032198;28;20464;-76
2021/06/18 02:12:33;;;;;;;3.38;2.25;;;;;;;;;;5032206;28;20026;-76
2021/06/18 02:15:00;;;;;;;2.63;2.08;;;;;;;;;;5033527;28;20491;-76
2021/06/18 02:17:27;;;;;;;3.30;2.35;;;;;;;;;;5035966;28;20033;-76
2021/06/18 02:19:55;;;;;;;3.53;2.25;;;;;;;;;;5025030;28;20067;-76
2021/06/18 02:22:21;;;;;;;4.88;2.40;;;;;;;;;;5034829;28;20037;-76
2021/06/18 02:24:48;;;;;;;4.45;2.50;;;;;;;;;;5035538;28;20443;-76
2021/06/18 02:27:15;;;;;;;3.88;2.47;;;;;;;;;;5034313;28;20021;-76
2021/06/18 02:29:42;;;;;;;3.33;2.47;;;;;;;;;;5034365;28;20030;-76
2021/06/18 02:32:11;;;;;;;3.55;2.22;;;;;;;;;;5035742;28;20033;-76
2021/06/18 02:34:38;;;;;;;4.15;1.83;;;;;;;;;;5035645;28;20025;-76
2021/06/18 02:37:04;;;;;;;4.25;2.58;;;;;;;;;;5035824;28;20057;-76
2021/06/18 02:39:30;;;;;;;3.88;2.17;;;;;;;;;;5035772;28;20038;-76
2021/06/18 02:41:56;;;;;;;5.47;2.40;;;;;;;;;;5036069;28;20025;-76
2021/06/18 02:44:23;;;;;;;5.45;2.28;;;;;;;;;;5035054;28;20396;-76
2021/06/18 02:47:00;;;;;;;3.47;2.10;;;;;;;;;;5035852;28;20057;-76
2021/06/18 02:49:38;;;;;;;6.25;2.50;;;;;;;;;;5035829;28;20026;-76
2021/06/18 02:52:09;;;;;;;3.70;2.10;;;;;;;;;;5035231;28;20022;-76
2021/06/18 02:54:37;;;;;;;5.07;2.67;;;;;;;;;;5027706;28;20071;-77
2021/06/18 02:57:24;;;;;;;2.90;2.25;;;;;;;;;;5035458;28;20032;-76
2021/06/18 03:00:07;;;;;;;5.82;2.50;;;;;;;;;;5034066;28;20036;-76
2021/06/18 03:02:37;;;;;;;4.15;2.30;;;;;;;;;;5035087;28;20083;-76
2021/06/18 03:05:07;;;;;;;4.60;2.42;;;;;;;;;;5035194;28;20025;-76
2021/06/18 03:07:34;;;;;;;4.75;2.38;;;;;;;;;;5035215;28;20041;-76
2021/06/18 03:10:03;;;;;;;2.95;2.30;;;;;;;;;;5034970;28;20032;-76
2021/06/18 03:12:29;;;;;;;6.15;2.60;;;;;;;;;;5035357;28;20488;-74
2021/06/18 03:14:57;;;;;;;5.28;2.90;;;;;;;;;;5034785;28;20025;-76
2021/06/18 03:17:24;;;;;;;6.88;2.28;;;;;;;;;;5034791;28;20037;-76
2021/06/18 03:19:53;;;;;;;4.80;2.78;;;;;;;;;;5027818;28;20068;-76
2021/06/18 03:22:21;;;;;;;10.70;3.10;;;;;;;;;;5034879;28;20048;-76
2021/06/18 03:24:48;;;;;;;5.63;3.05;;;;;;;;;;5034599;28;20029;-76
2021/06/18 03:27:15;;;;;;;3.97;2.65;;;;;;;;;;5034200;28;20030;-76
2021/06/18 03:29:41;;;;;;;3.97;2.58;;;;;;;;;;5034523;28;20021;-76
2021/06/18 03:32:08;;;;;;;3.95;2.47;;;;;;;;;;5034168;28;20024;-76
2021/06/18 03:34:34;;;;;;;5.22;2.70;;;;;;;;;;5034716;28;20057;-76
2021/06/18 03:37:01;;;;;;;3.08;2.30;;;;;;;;;;5034650;28;20034;-76
2021/06/18 03:39:28;;;;;;;5.43;3.03;;;;;;;;;;5034123;28;20029;-76
2021/06/18 03:41:54;;;;;;;4.50;2.70;;;;;;;;;;5034526;28;20037;-76
2021/06/18 03:44:20;;;;;;;8.10;2.92;;;;;;;;;;5034347;28;20038;-75
2021/06/18 03:46:47;;;;;;;4.30;2.90;;;;;;;;;;5034459;28;20065;-76
2021/06/18 03:49:14;;;;;;;5.90;3.40;;;;;;;;;;5034646;28;20047;-76
2021/06/18 03:51:40;;;;;;;3.80;2.60;;;;;;;;;;5034751;28;20025;-76
2021/06/18 03:54:07;;;;;;;3.78;2.42;;;;;;;;;;5032664;28;20053;-76
2021/06/18 03:56:33;;;;;;;4.28;2.88;;;;;;;;;;5034206;28;20487;-76
2021/06/18 03:59:00;;;;;;;3.38;2.40;;;;;;;;;;5034303;28;20506;-77
2021/06/18 04:01:27;;;;;;;4.70;3.33;;;;;;;;;;5033847;28;20026;-75
2021/06/18 04:03:53;;;;;;;6.05;2.85;;;;;;;;;;5034156;28;20418;-76
2021/06/18 04:06:20;;;;;;;5.90;2.70;;;;;;;;;;5033862;28;20053;-75
2021/06/18 04:08:46;;;;;;;5.65;2.70;;;;;;;;;;5014656;28;20037;-76
2021/06/18 04:11:13;;;;;;;6.60;3.17;;;;;;;;;;5028140;28;20017;-75
2021/06/18 04:13:41;;;;;;;4.95;2.50;;;;;;;;;;5033935;28;20033;-76
2021/06/18 04:16:07;;;;;;;7.00;2.55;;;;;;;;;;5032682;28;20420;-76
2021/06/18 04:18:34;;;;;;;4.60;2.90;;;;;;;;;;5034097;28;20368;-75
2021/06/18 04:21:04;;;;;;;4.43;2.65;;;;;;;;;;5028647;28;20698;-75
2021/06/18 04:23:30;;;;;;;4.05;2.80;;;;;;;;;;5032812;28;20544;-76
2021/06/18 04:25:57;;;;;;;4.90;3.08;;;;;;;;;;5033810;28;20036;-76
2021/06/18 04:28:23;;;;;;;3.97;2.58;;;;;;;;;;5033400;28;20021;-76
2021/06/18 04:30:49;;;;;;;7.30;2.78;;;;;;;;;;5032970;28;20064;-76
2021/06/18 04:33:15;;;;;;;5.05;2.72;;;;;;;;;;5032039;28;20037;-76
2021/06/18 04:35:41;;;;;;;7.10;2.60;;;;;;;;;;5032868;28;20152;-75
2021/06/18 04:38:07;;;;;;;5.70;2.88;;;;;;;;;;5032893;28;20475;-76
2021/06/18 04:40:34;;;;;;;6.22;2.75;;;;;;;;;;5033132;28;20029;-76
2021/06/18 04:43:00;;;;;;;8.07;3.10;;;;;;;;;;5033388;28;20641;-76
2021/06/18 04:45:26;;;;;;;5.80;2.50;;;;;;;;;;5032645;28;20518;-76
2021/06/18 04:47:54;;;;;;;4.40;2.45;;;;;;;;;;5033062;28;20076;-76
2021/06/18 04:50:20;;;;;;;5.15;2.28;;;;;;;;;;5032379;28;20104;-76
2021/06/18 04:52:47;;;;;;;5.00;2.40;;;;;;;;;;5033161;28;20033;-75
2021/06/18 04:55:17;;;;;;;5.38;2.60;;;;;;;;;;5028712;28;20542;-76
2021/06/18 04:57:44;;;;;;;4.35;2.50;;;;;;;;;;5032835;28;20064;-76
2021/06/18 05:00:10;;;;;;;3.72;2.40;;;;;;;;;;5031509;28;20033;-76
2021/06/18 05:02:36;;;;;;;8.25;2.50;;;;;;;;;;5032833;28;20121;-75
2021/06/18 05:05:03;;;;;;;7.78;2.67;;;;;;;;;;5031029;28;20030;-76
2021/06/18 05:07:29;;;;;;;6.72;2.17;;;;;;;;;;5033032;28;20384;-75
2021/06/18 05:09:55;;;;;;;6.60;2.70;;;;;;;;;;5032619;28;20021;-76
2021/06/18 05:12:22;;;;;;;3.20;2.35;;;;;;;;;;5033215;28;20018;-75
2021/06/18 05:14:48;;;;;;;5.18;2.65;;;;;;;;;;5032434;28;20388;-76
2021/06/18 05:17:14;;;;;;;5.70;2.63;;;;;;;;;;5031396;28;20511;-76
2021/06/18 05:19:40;;;;;;;4.80;2.40;;;;;;;;;;5024263;28;20050;-75
2021/06/18 05:22:06;;;;;;;4.80;2.60;;;;;;;;;;5032688;28;20032;-76
2021/06/18 05:24:33;;;;;;;4.05;2.45;;;;;;;;;;5030842;28;20112;-76
2021/06/18 05:26:59;;;;;;;3.67;2.30;;;;;;;;;;5032568;28;20034;-76
2021/06/18 05:29:25;;;;;;;4.32;2.42;;;;;;;;;;5032394;28;20028;-76
2021/06/18 05:31:51;;;;;;;2.60;2.15;;;;;;;;;;5031121;28;20357;-76
2021/06/18 05:34:17;;;;;;;6.70;2.22;;;;;;;;;;5030809;28;20476;-76
2021/06/18 05:36:46;;;;;;;6.43;2.40;;;;;;;;;;5030907;28;20021;-76
2021/06/18 05:39:13;;;;;;;3.30;2.63;;;;;;;;;;5030804;28;20029;-76
2021/06/18 05:41:39;;;;;;;5.85;2.60;;;;;;;;;;5030745;28;20026;-76
2021/06/18 05:44:05;;;;;;;5.13;2.30;;;;;;;;;;5030799;28;20034;-76
2021/06/18 05:46:31;;;;;;;5.50;2.47;;;;;;;;;;5030696;28;20021;-76
2021/06/18 05:48:58;;;;;;;4.15;2.50;;;;;;;;;;5030381;28;20028;-76
2021/06/18 05:51:24;;;;;;;9.55;3.33;;;;;;;;;;5030598;28;20017;-76
2021/06/18 05:53:50;;;;;;;4.50;2.85;;;;;;;;;;5031076;28;20018;-76
2021/06/18 05:56:17;;;;;;;3.42;2.70;;;;;;;;;;5031288;28;20025;-76
2021/06/18 05:58:43;;;;;;;3.67;2.63;;;;;;;;;;5032799;28;20079;-76
2021/06/18 06:01:09;;;;;;;4.28;2.78;;;;;;;;;;5032430;28;20035;-76
2021/06/18 06:03:35;;;;;;;4.35;2.47;;;;;;;;;;5031885;28;20033;-76
2021/06/18 06:06:01;;;;;;;5.13;3.15;;;;;;;;;;5032245;28;20060;-77
2021/06/18 06:08:28;;;;;;;3.40;2.22;;;;;;;;;;5032314;28;20032;-76
2021/06/18 06:10:54;;;;;;;4.22;2.03;;;;;;;;;;5031714;28;20025;-76
2021/06/18 06:13:20;;;;;;;3.38;2.33;;;;;;;;;;5031636;28;20841;-76
2021/06/18 06:15:47;;;;;;;6.35;3.22;;;;;;;;;;5031071;28;20026;-74
2021/06/18 06:18:14;;;;;;;6.68;2.60;;;;;;;;;;5031215;28;20488;-76
2021/06/18 06:20:41;;;;;;;3.90;2.30;;;;;;;;;;5031277;28;20049;-76
2021/06/18 06:23:07;;;;;;;3.47;2.08;;;;;;;;;;5032342;28;20025;-76
2021/06/18 06:25:33;;;;;;;4.10;2.35;;;;;;;;;;5031192;28;20025;-76
2021/06/18 06:27:59;;;;;;;4.88;2.42;;;;;;;;;;5032056;28;20033;-76
2021/06/18 06:30:25;;;;;;;4.90;2.00;;;;;;;;;;5032135;28;20104;-76
2021/06/18 06:32:51;;;;;;;4.10;2.28;;;;;;;;;;5031945;28;20484;-76
2021/06/18 06:35:17;;;;;;;5.93;2.78;;;;;;;;;;5032080;28;20025;-76
2021/06/18 06:37:43;;;;;;;3.75;2.58;;;;;;;;;;5032056;28;20030;-76
2021/06/18 06:40:13;;;;;;;3.38;2.15;;;;;;;;;;5032205;28;20475;-76
2021/06/18 06:42:39;;;;;;;4.40;2.45;;;;;;;;;;5032238;28;20421;-76
2021/06/18 06:45:06;;;;;;;3.35;1.90;;;;;;;;;;5032313;28;20380;-74
2021/06/18 06:47:32;;;;;;;2.15;1.90;;;;;;;;;;5031878;28;20411;-76
2021/06/18 06:49:58;;;;;;;3.58;2.15;;;;;;;;;;5032044;28;20037;-75
2021/06/18 06:52:24;;;;;;;3.20;2.00;;;;;;;;;;5031941;28;20029;-76
2021/06/18 06:54:50;;;;;;;3.10;1.73;;;;;;;;;;5031912;28;20491;-74
2021/06/18 06:57:18;;;;;;;4.97;2.20;;;;;;;;;;5030987;28;20030;-73
2021/06/18 06:59:44;;;;;;;5.13;1.90;;;;;;;;;;5015856;28;20108;-74
2021/06/18 07:02:10;;;;;;;4.80;1.95;;;;;;;;;;5024405;28;20033;-75
2021/06/18 07:04:36;;;;;;;6.28;2.17;;;;;;;;;;5019409;28;20032;-73
2021/06/18 07:07:02;;;;;;;4.97;2.05;;;;;;;;;;5018422;28;20069;-76
2021/06/18 07:09:29;;;;;;;3.15;2.10;;;;;;;;;;5011980;28;20025;-72
2021/06/18 07:11:55;;;;;;;3.75;1.90;;;;;;;;;;5023471;28;20036;-75
2021/06/18 07:14:21;;;;;;;3.70;2.45;;;;;;;;;;5030941;28;20037;-76
2021/06/18 07:16:47;;;;;;;3.30;2.15;;;;;;;;;;5031390;28;20036;-75
2021/06/18 07:19:13;;;;;;;6.65;1.92;;;;;;;;;;5020779;28;20034;-74
2021/06/18 07:21:39;;;;;;;4.00;2.03;;;;;;;;;;5025767;28;20037;-75
2021/06/18 07:24:05;;;;;;;3.53;2.00;;;;;;;;;;5020968;28;20030;-75
2021/06/18 07:26:31;;;;;;;2.42;2.00;;;;;;;;;;5031794;28;20505;-73
2021/06/18 07:28:57;;;;;;;5.57;2.10;;;;;;;;;;5025442;28;20029;-74
2021/06/18 07:31:23;;;;;;;3.08;2.10;;;;;;;;;;5027462;28;20030;-74
2021/06/18 07:33:49;;;;;;;6.47;1.98;;;;;;;;;;5028510;28;20618;-76
2021/06/18 07:36:15;;;;;;;6.15;2.13;;;;;;;;;;5018822;28;20026;-75
2021/06/18 07:38:42;;;;;;;5.53;2.08;;;;;;;;;;5019391;28;20033;-75
2021/06/18 07:41:09;;;;;;;3.80;2.03;;;;;;;;;;5016301;28;20123;-76
2021/06/18 07:43:35;;;;;;;4.50;1.95;;;;;;;;;;5017351;28;20088;-78
2021/06/18 07:46:01;;;;;;;3.90;2.15;;;;;;;;;;5016603;28;20033;-78
2021/06/18 07:48:27;;;;;;;10.63;2.10;;;;;;;;;;5025575;28;20041;-78
2021/06/18 07:50:53;;;;;;;3.45;1.95;;;;;;;;;;5020728;28;20124;-77
2021/06/18 07:53:19;;;;;;;2.50;1.80;;;;;;;;;;5024428;28;20041;-74
2021/06/18 07:55:47;;;;;;;2.63;1.98;;;;;;;;;;5015558;28;20036;-75
2021/06/18 07:58:13;;;;;;;3.08;1.85;;;;;;;;;;5021186;28;20037;-75
2021/06/18 08:00:39;;;;;;;2.30;2.10;;;;;;;;;;5020879;28;20033;-76
2021/06/18 08:03:06;;;;;;;2.17;1.77;;;;;;;;;;5020354;28;20100;-75
2021/06/18 08:05:33;;;;;;;5.10;1.92;;;;;;;;;;5025038;28;20488;-74
2021/06/18 08:07:59;;;;;;;2.00;1.73;;;;;;;;;;5018054;28;20041;-75
2021/06/18 08:10:26;;;;;;;3.55;1.85;;;;;;;;;;5017771;28;20080;-75
2021/06/18 08:12:52;;;;;;;3.20;1.92;;;;;;;;;;5022783;28;20411;-75
2021/06/18 08:15:18;;;;;;;2.60;1.63;;;;;;;;;;5027446;28;20484;-74
2021/06/18 08:17:46;;;;;;;5.57;1.65;;;;;;;;;;5017456;28;20057;-75
2021/06/18 08:20:13;;;;;;;2.00;1.80;;;;;;;;;;5012835;28;20092;-76
2021/06/18 08:22:40;;;;;;;2.50;1.80;;;;;;;;;;5017867;28;20117;-73
2021/06/18 08:25:07;;;;;;;4.97;1.90;;;;;;;;;;5016601;28;20026;-74
2021/06/18 08:27:33;;;;;;;1.80;1.65;;;;;;;;;;5024977;28;20821;-73
2021/06/18 08:29:59;;;;;;;6.68;1.85;;;;;;;;;;5012880;28;20048;-72
2021/06/18 08:32:25;;;;;;;3.13;1.70;;;;;;;;;;5022307;28;20057;-72
2021/06/18 08:34:51;;;;;;;1.98;1.60;;;;;;;;;;5017077;28;20076;-74
2021/06/18 08:37:18;;;;;;;3.22;1.80;;;;;;;;;;5023578;28;20103;-72
2021/06/18 08:39:45;;;;;;;6.75;1.85;;;;;;;;;;5021088;28;20878;-72
2021/06/18 08:42:11;;;;;;;2.47;1.65;;;;;;;;;;5022205;28;20029;-72
2021/06/18 08:44:38;;;;;;;3.47;1.90;;;;;;;;;;5027098;28;20030;-73
2021/06/18 08:47:04;;;;;;;3.03;1.70;;;;;;;;;;5018924;28;20033;-74
2021/06/18 08:49:30;;;;;;;2.67;1.80;;;;;;;;;;5022141;28;20036;-73
2021/06/18 08:51:56;;;;;;;1.77;1.65;;;;;;;;;;5024462;28;20108;-73
2021/06/18 08:54:41;;;;;;;3.13;1.90;;;;;;;;;;5024844;28;20652;-72
2021/06/18 08:57:07;;;;;;;2.63;1.83;;;;;;;;;;5026457;28;20033;-71
2021/06/18 08:59:33;;;;;;;5.45;2.00;;;;;;;;;;5018014;28;20030;-73
2021/06/18 09:01:59;;;;;;;3.65;1.90;;;;;;;;;;5023882;28;20116;-74
2021/06/18 09:04:25;;;;;;;3.45;1.98;;;;;;;;;;5019308;28;20088;-72
2021/06/18 09:06:57;;;;;;;2.47;1.90;;;;;;;;;;5021759;28;20031;-73
2021/06/18 09:09:27;;;;;;;2.60;1.77;;;;;;;;;;5015627;28;20061;-73
2021/06/18 09:11:53;;;;;;;2.60;2.00;;;;;;;;;;5019041;28;20053;-74
2021/06/18 09:14:21;;;;;;;2.92;1.80;;;;;;;;;;5016549;28;20049;-74
2021/06/18 09:17:05;;;;;;;2.47;1.70;;;;;;;;;;5019049;28;20075;-74
2021/06/18 09:19:32;;;;;;;4.43;2.00;;;;;;;;;;5019828;28;20029;-73
2021/06/18 09:22:00;;;;;;;3.85;1.98;;;;;;;;;;5020262;28;20099;-73
2021/06/18 09:24:37;;;;;;;2.72;2.00;;;;;;;;;;5016932;28;20034;-73
2021/06/18 09:27:04;;;;;;;5.82;2.00;;;;;;;;;;5014679;28;20103;-73
2021/06/18 09:29:30;;;;;;;1.95;1.75;;;;;;;;;;5016572;28;20195;-73
2021/06/18 09:31:59;;;;;;;4.20;2.00;;;;;;;;;;5016497;28;20029;-72
2021/06/18 09:34:46;;;;;;;3.00;1.70;;;;;;;;;;5014151;28;20116;-73
2021/06/18 09:37:20;;;;;;;1.83;1.65;;;;;;;;;;5016679;28;20029;-75
2021/06/18 09:40:05;;;;;;;2.63;1.65;;;;;;;;;;5013187;28;20033;-75
2021/06/18 09:42:32;;;;;;;3.50;2.08;;;;;;;;;;5021050;28;20053;-75
2021/06/18 09:45:01;;;;;;;5.30;2.00;;;;;;;;;;5011899;28;20061;-75
2021/06/18 09:47:28;;;;;;;3.47;1.85;;;;;;;;;;5017078;28;20030;-73
2021/06/18 09:49:54;;;;;;;2.88;1.55;;;;;;;;;;5023344;28;20441;-72
2021/06/18 09:52:22;;;;;;;5.20;2.28;;;;;;;;;;5011469;28;20025;-74
2021/06/18 09:54:54;;;;;;;3.40;2.00;;;;;;;;;;5014863;28;20437;-73
2021/06/18 09:57:20;;;;;;;3.17;1.73;;;;;;;;;;5008622;28;20045;-73
2021/06/18 10:00:01;;;;;;;3.20;1.92;;;;;;;;;;5018727;28;20112;-73
2021/06/18 10:02:39;;;;;;;3.45;1.85;;;;;;;;;;5020452;28;20668;-73
2021/06/18 10:05:07;;;;;;;2.10;1.80;;;;;;;;;;5023366;28;20033;-73
2021/06/18 10:07:34;;;;;;;4.97;1.92;;;;;;;;;;5020724;28;20371;-74
2021/06/18 10:10:01;;;;;;;1.92;1.75;;;;;;;;;;5013351;28;20029;-73
2021/06/18 10:12:31;;;;;;;5.05;1.80;;;;;;;;;;5017974;28;20030;-73
2021/06/18 10:14:58;;;;;;;2.63;1.90;;;;;;;;;;5006837;28;20049;-73
2021/06/18 10:17:25;;;;;;;2.00;1.80;;;;;;;;;;5014555;28;20030;-74
2021/06/18 10:19:51;;;;;;;4.15;2.00;;;;;;;;;;5015241;28;20044;-73
2021/06/18 10:22:21;;;;;;;3.58;1.95;;;;;;;;;;5022558;28;20061;-74
2021/06/18 10:24:55;;;;;;;3.50;2.10;;;;;;;;;;5018364;28;20037;-74
2021/06/18 10:27:27;;;;;;;2.35;1.73;;;;;;;;;;5020082;28;20125;-73
2021/06/18 10:29:53;;;;;;;4.55;1.80;;;;;;;;;;5014282;28;20139;-73
2021/06/18 10:32:29;;;;;;;5.45;2.22;;;;;;;;;;5019742;28;20457;-72
2021/06/18 10:34:56;;;;;;;3.92;2.00;;;;;;;;;;5024709;28;20029;-74
2021/06/18 10:37:23;;;;;;;2.53;2.00;;;;;;;;;;5025072;28;20040;-73
2021/06/18 10:39:54;;;;;;;4.63;1.63;;;;;;;;;;5017186;28;20852;-72
2021/06/18 10:42:22;;;;;;;1.77;1.60;;;;;;;;;;5022569;28;20026;-71
2021/06/18 10:44:49;;;;;;;3.45;1.90;;;;;;;;;;5022208;28;20025;-72
2021/06/18 10:47:25;;;;;;;2.10;1.80;;;;;;;;;;5030406;28;20060;-72
2021/06/18 10:49:52;;;;;;;6.70;2.42;;;;;;;;;;5027387;28;20503;-72
2021/06/18 10:52:22;;;;;;;7.95;2.22;;;;;;;;;;5021988;28;20721;-73
2021/06/18 10:55:00;;;;;;;6.15;1.85;;;;;;;;;;5024375;28;20026;-72
2021/06/18 10:57:27;;;;;;;2.63;1.67;;;;;;;;;;5019722;28;20025;-72
2021/06/18 10:59:53;;;;;;;2.20;1.92;;;;;;;;;;5021615;28;20464;-74
2021/06/18 11:02:23;;;;;;;3.13;1.80;;;;;;;;;;5019439;28;20036;-74
2021/06/18 11:04:53;;;;;;;2.00;1.70;;;;;;;;;;5017985;28;20581;-73
2021/06/18 11:07:20;;;;;;;3.75;1.90;;;;;;;;;;5022921;28;20114;-73
2021/06/18 11:09:46;;;;;;;2.70;1.90;;;;;;;;;;5015846;28;20026;-73
2021/06/18 11:12:25;;;;;;;2.90;1.95;;;;;;;;;;5027283;28;20100;-74
2021/06/18 11:14:52;;;;;;;3.05;1.67;;;;;;;;;;5016059;28;20033;-74
2021/06/18 11:17:37;;;;;;;3.15;1.77;;;;;;;;;;5019836;28;20430;-73
2021/06/18 11:20:04;;;;;;;2.70;2.10;;;;;;;;;;5014491;28;20103;-72
2021/06/18 11:22:56;;;;;;;6.85;2.03;;;;;;;;;;5020775;28;20431;-73
2021/06/18 11:25:40;;;;;;;3.80;2.05;;;;;;;;;;5023772;28;20037;-73
2021/06/18 11:28:22;;;;;;;3.67;2.07;;;;;;;;;;5018584;28;20037;-73
2021/06/18 11:30:51;;;;;;;4.97;2.10;;;;;;;;;;5018702;28;20112;-74
2021/06/18 11:33:36;;;;;;;4.20;2.17;;;;;;;;;;5016762;28;20029;-73
2021/06/18 11:36:03;;;;;;;3.20;2.30;;;;;;;;;;5012484;28;20018;-73
2021/06/18 11:38:29;;;;;;;3.85;2.28;;;;;;;;;;5022216;28;20048;-73
2021/06/18 11:40:56;;;;;;;3.67;2.20;;;;;;;;;;5020073;28;20435;-74
2021/06/18 11:43:29;;;;;;;3.90;2.42;;;;;;;;;;5021089;28;20030;-74
2021/06/18 11:45:55;;;;;;;4.95;2.30;;;;;;;;;;5024008;28;20443;-72
2021/06/18 11:48:21;;;;;;;2.63;1.98;;;;;;;;;;5027916;28;20040;-73
2021/06/18 11:50:48;;;;;;;6.55;2.10;;;;;;;;;;5018754;28;20021;-74
2021/06/18 11:53:15;;;;;;;8.82;2.47;;;;;;;;;;5020137;28;20424;-74
2021/06/18 11:55:41;;;;;;;2.63;2.10;;;;;;;;;;5024851;28;20022;-73
2021/06/18 11:58:08;;;;;;;3.45;2.33;;;;;;;;;;5020159;28;20033;-73
2021/06/18 12:00:35;;;;;;;5.03;2.50;;;;;;;;;;5019377;28;20538;-73
2021/06/18 12:03:01;;;;;;;7.80;2.70;;;;;;;;;;5026029;28;20037;-73
2021/06/18 12:05:31;;;;;;;5.00;2.63;;;;;;;;;;5023161;28;20083;-72
2021/06/18 12:07:57;;;;;;;3.83;2.47;;;;;;;;;;5021689;28;20038;-73
2021/06/18 12:10:29;;;;;;;6.35;3.15;;;;;;;;;;5017287;28;20083;-74
2021/06/18 12:12:57;;;;;;;5.28;2.47;;;;;;;;;;5025560;28;20036;-74
2021/06/18 12:15:28;;;;;;;4.70;2.70;;;;;;;;;;5025919;28;20427;-73
2021/06/18 12:18:01;;;;;;;2.72;2.20;;;;;;;;;;5024506;28;20539;-73
2021/06/18 12:20:30;;;;;;;7.00;2.72;;;;;;;;;;5015766;28;20048;-74
2021/06/18 12:22:56;;;;;;;3.45;2.80;;;;;;;;;;5020480;28;20042;-74
2021/06/18 12:25:22;;;;;;;5.93;2.85;;;;;;;;;;5024996;28;20029;-75
2021/06/18 12:27:53;;;;;;;2.95;2.33;;;;;;;;;;5024141;28;20048;-74
2021/06/18 12:30:20;;;;;;;2.55;2.15;;;;;;;;;;5013231;28;20098;-73
2021/06/18 12:32:47;;;;;;;2.55;2.20;;;;;;;;;;5027573;28;20033;-75
2021/06/18 12:35:16;;;;;;;4.38;2.95;;;;;;;;;;5024578;28;20091;-74
2021/06/18 12:37:43;;;;;;;4.65;2.30;;;;;;;;;;5022093;28;20400;-73
2021/06/18 12:40:19;;;;;;;5.10;2.42;;;;;;;;;;5021769;28;20540;-73
2021/06/18 12:42:49;;;;;;;6.45;2.55;;;;;;;;;;5027229;28;20080;-73
2021/06/18 12:45:17;;;;;;;4.00;2.50;;;;;;;;;;5014401;28;20043;-73
2021/06/18 12:47:47;;;;;;;3.92;3.10;;;;;;;;;;5017972;28;20029;-73
2021/06/18 12:50:33;;;;;;;4.97;2.40;;;;;;;;;;5015361;28;20026;-73
2021/06/18 12:53:00;;;;;;;2.83;2.40;;;;;;;;;;5021289;28;20034;-71
2021/06/18 12:55:28;;;;;;;3.85;2.50;;;;;;;;;;5018903;28;20044;-72
2021/06/18 12:58:04;;;;;;;3.30;2.60;;;;;;;;;;5013490;28;20034;-73
2021/06/18 13:00:31;;;;;;;4.55;2.40;;;;;;;;;;5018017;28;20428;-73
2021/06/18 13:02:57;;;;;;;6.10;2.50;;;;;;;;;;5026943;28;20033;-72
2021/06/18 13:05:25;;;;;;;3.85;2.40;;;;;;;;;;5023172;28;20511;-73
2021/06/18 13:07:52;;;;;;;7.28;2.55;;;;;;;;;;5023178;28;20463;-73
2021/06/18 13:10:18;;;;;;;3.30;2.47;;;;;;;;;;5024627;28;20492;-73
2021/06/18 13:12:57;;;;;;;7.68;2.85;;;;;;;;;;5020260;28;20025;-72
2021/06/18 13:15:30;;;;;;;5.20;2.80;;;;;;;;;;5026041;28;20026;-72
2021/06/18 13:17:57;;;;;;;2.85;2.55;;;;;;;;;;5018939;28;20036;-73
2021/06/18 13:20:30;;;;;;;6.68;3.05;;;;;;;;;;5016079;28;20049;-74
2021/06/18 13:22:56;;;;;;;3.75;2.90;;;;;;;;;;5019108;28;20241;-73
2021/06/18 13:25:27;;;;;;;6.88;2.92;;;;;;;;;;5016615;28;20036;-73
2021/06/18 13:27:54;;;;;;;5.05;3.03;;;;;;;;;;5024917;28;20029;-73
2021/06/18 13:30:20;;;;;;;3.25;2.78;;;;;;;;;;5021279;28;20491;-73
2021/06/18 13:32:47;;;;;;;7.03;2.80;;;;;;;;;;5016796;28;20456;-73
2021/06/18 13:35:14;;;;;;;6.22;4.15;;;;;;;;;;5025674;28;20030;-74
2021/06/18 13:37:41;;;;;;;4.70;2.72;;;;;;;;;;5019135;28;20590;-73
2021/06/18 13:40:20;;;;;;;4.53;3.10;;;;;;;;;;5020809;28;20042;-72
2021/06/18 13:42:49;;;;;;;8.20;3.10;;;;;;;;;;5025811;28;20158;-72
2021/06/18 13:45:16;;;;;;;4.30;3.47;;;;;;;;;;5023557;28;20071;-72
2021/06/18 13:47:42;;;;;;;4.63;2.80;;;;;;;;;;5022158;28;20365;-73
2021/06/18 13:50:09;;;;;;;5.85;3.75;;;;;;;;;;5018084;28;20683;-73
2021/06/18 13:52:35;;;;;;;4.75;3.20;;;;;;;;;;5018639;28;20134;-75
2021/06/18 13:55:01;;;;;;;7.35;3.90;;;;;;;;;;5015427;28;20025;-74
2021/06/18 13:57:29;;;;;;;5.07;3.00;;;;;;;;;;5022080;28;20039;-74
2021/06/18 13:59:55;;;;;;;8.52;3.13;;;;;;;;;;5023134;28;20061;-73
2021/06/18 14:02:22;;;;;;;7.57;3.03;;;;;;;;;;5022068;28;20034;-73
2021/06/18 14:04:48;;;;;;;9.48;3.28;;;;;;;;;;5022150;28;20037;-74
2021/06/18 14:07:14;;;;;;;4.65;3.25;;;;;;;;;;5019394;28;20129;-73
2021/06/18 14:09:41;;;;;;;4.70;3.08;;;;;;;;;;5024737;28;20032;-72
2021/06/18 14:12:09;;;;;;;6.25;3.67;;;;;;;;;;5034621;28;20534;-74
2021/06/18 14:14:42;;;;;;;3.83;2.90;;;;;;;;;;5028628;28;20531;-72
2021/06/18 14:17:09;;;;;;;9.85;4.07;;;;;;;;;;5029179;28;20083;-72
2021/06/18 14:19:35;;;;;;;4.85;3.00;;;;;;;;;;5026462;28;20724;-73
2021/06/18 14:22:02;;;;;;;7.32;3.40;;;;;;;;;;5032214;28;20083;-72
2021/06/18 14:24:28;;;;;;;3.70;2.92;;;;;;;;;;5026369;28;20483;-73
2021/06/18 14:26:54;;;;;;;5.45;3.00;;;;;;;;;;5024834;28;20395;-73
2021/06/18 14:29:20;;;;;;;4.70;3.30;;;;;;;;;;5020281;28;20034;-72
2021/06/18 14:31:49;;;;;;;6.10;3.38;;;;;;;;;;5026950;28;20025;-74
2021/06/18 14:34:15;;;;;;;4.07;3.25;;;;;;;;;;5030715;28;20484;-72
2021/06/18 14:36:42;;;;;;;11.68;3.55;;;;;;;;;;5032029;28;20440;-73
2021/06/18 14:39:09;;;;;;;5.60;3.50;;;;;;;;;;5026573;28;20373;-72
2021/06/18 14:41:35;;;;;;;5.25;2.95;;;;;;;;;;5026400;28;20030;-73
2021/06/18 14:44:01;;;;;;;6.47;3.88;;;;;;;;;;5029510;28;20041;-72
2021/06/18 14:46:27;;;;;;;4.63;3.50;;;;;;;;;;5026763;28;20036;-73
2021/06/18 14:48:53;;;;;;;4.22;3.20;;;;;;;;;;5027739;28;20044;-73